Wokal Field Glasgow International Airport
KGGW : rendu visible

Aérodrome :











RETROUVEZ-NOUS SUR...

 
LOGIN :

S'inscrire | Disclaimer

   EN    FR    IT 

 









Légende :    VFR   VFR Marginal   IFR   IFR Intensif   IFR Très Intensif
Visi : 
Plafond : 
>= 8 km
>= 3000ft
5 à 8 km
1000 à 3000 ft
1500m à 5 km
500 à 1000 ft
800 à 1500m
200 à 500 ft
< 800m
< 200 ft
Symboles :   Orages  Brouillard  Fortes neiges  Fortes précipitations  Vent > 20 kt






- Altitude de l'aérodrome : 2296 ft
- Code IATA : GGW


KGGW - Wokal Field Glasgow International

DERNIER METAR :
  • 312053Z AUTO 15016KT 10SM CLR 27/14 A2966 RMK AO2 SLP032 T02720139 56022

METARs EXPIRÉS :
  • 311953Z AUTO 15017KT 10SM CLR 27/13 A2968 RMK AO2 PK WND 13026/1937 SLP040 T02670133
  • 311853Z AUTO 16016KT 10SM CLR 27/13 A2970 RMK AO2 SLP044 T02670133
  • 311753Z AUTO 16014KT 10SM CLR 26/13 A2973 RMK AO2 PK WND 16030/1710 SLP056 T02560133 10261 20144 56008

TAF KGGW
Valide du 31 à 18h jusqu'au 01 à 18h UTC


311720Z 3118/0118 14020G31KT P6SM SCT120
FM312200 19019G27KT P6SM VCTS SCT100CB
FM010000 29019G27KT P6SM VCTS SCT100CB
TEMPO 0100/0101 6SM -TSRA BR BKN100CB
FM010200 30009KT P6SM FEW150
FM010800 VRB06KT P6SM FEW150 WS020/29040KT
FIR KZLC / Amérique du Nord



MET'MAP, la Météo Aéronautique d'un coup d'oeil ! - Copyright ORBIFLY Décembre 2007 - Disclaimer

ORBIFLY MET'MAP TEAM :

Programmation & Développement : Alexandra Zaïnal
Sur une idée originale de : Baudouin d'Aumeries
Assistance à la programmation : Marc-Olivier Méhu
Soutien technique & logistique : Manuel Goepfert

Contact : metmap@orbifly.com




SOURCES & CREDITS :

   NOAA       Earth
Advisory